Time;durP1;ratioP1;P1;durP2;ratioP2;P2;SDS_P1;SDS_P2;PMS_P1;PMS_P2;Temp;Humidity;BMP_temperature;BMP_pressure;BME280_temperature;BME280_humidity;BME280_pressure;Samples;Min_cycle;Max_cycle;Signal;HPM_P1;HPM_P2
2022/05/21 00:01:47;;;;;;;5.75;3.83;;;18.70;99.90;;;;;;4985554;28;20030;-36
2022/05/21 00:04:13;;;;;;;7.93;4.80;;;18.90;99.90;;;;;;4976139;28;20023;-39
2022/05/21 00:06:40;;;;;;;5.38;3.95;;;18.80;99.90;;;;;;4980284;28;20049;-35
2022/05/21 00:09:07;;;;;;;8.37;4.60;;;18.80;99.90;;;;;;4981335;28;20523;-35
2022/05/21 00:11:32;;;;;;;4.43;3.67;;;18.80;99.90;;;;;;4973927;28;20030;-35
2022/05/21 00:13:58;;;;;;;8.10;4.55;;;18.80;99.90;;;;;;4979623;28;20495;-36
2022/05/21 00:16:24;;;;;;;4.47;3.88;;;18.80;99.90;;;;;;4974772;28;20065;-36
2022/05/21 00:18:49;;;;;;;7.15;3.92;;;18.80;99.90;;;;;;4973518;28;20045;-36
2022/05/21 00:21:15;;;;;;;4.45;3.90;;;18.70;99.90;;;;;;4976982;28;20023;-36
2022/05/21 00:23:42;;;;;;;5.38;3.90;;;18.40;99.90;;;;;;4976000;28;20030;-36
2022/05/21 00:26:13;;;;;;;9.15;3.90;;;18.50;99.90;;;;;;4982239;28;20054;-38
2022/05/21 00:28:41;;;;;;;7.57;3.92;;;18.30;99.90;;;;;;4978355;28;20031;-36
2022/05/21 00:31:09;;;;;;;5.82;4.07;;;18.20;99.90;;;;;;4970441;28;20034;-37
2022/05/21 00:33:36;;;;;;;4.68;4.05;;;18.20;99.90;;;;;;4974924;28;20043;-36
2022/05/21 00:36:03;;;;;;;6.28;4.53;;;18.10;99.90;;;;;;4979586;28;20070;-36
2022/05/21 00:38:29;;;;;;;6.30;3.63;;;18.10;99.90;;;;;;4974743;28;20030;-36
2022/05/21 00:40:55;;;;;;;5.53;3.47;;;17.90;99.90;;;;;;4957953;28;20546;-37
2022/05/21 00:43:50;;;;;;;8.20;3.65;;;17.90;99.90;;;;;;4978821;28;20097;-39
2022/05/21 00:46:20;;;;;;;9.73;3.65;;;18.00;99.90;;;;;;4977293;28;20026;-38
2022/05/21 00:49:11;;;;;;;6.65;4.13;;;18.10;99.90;;;;;;4972748;28;20680;-36
2022/05/21 00:51:59;;;;;;;5.18;3.95;;;18.00;99.90;;;;;;4975755;28;20073;-36
2022/05/21 00:54:29;;;;;;;5.65;3.75;;;18.10;99.90;;;;;;4984769;28;20065;-36
2022/05/21 00:57:08;;;;;;;4.47;3.30;;;18.10;99.90;;;;;;4980805;28;20065;-36
2022/05/21 00:59:50;;;;;;;5.10;3.50;;;18.00;99.90;;;;;;4959762;28;20030;-39
2022/05/21 01:02:22;;;;;;;7.80;3.78;;;17.90;99.90;;;;;;4974353;28;20488;-37
2022/05/21 01:04:49;;;;;;;5.20;3.42;;;17.90;99.90;;;;;;4968223;28;20591;-40
2022/05/21 01:07:15;;;;;;;8.65;4.05;;;17.90;99.90;;;;;;4977880;28;20488;-35
2022/05/21 01:12:15;;;;;;;4.05;3.45;;;18.00;99.90;;;;;;4926407;29;20059;-77
2022/05/21 01:14:41;;;;;;;4.55;3.40;;;18.20;99.90;;;;;;4913538;29;20038;-78
2022/05/21 01:17:08;;;;;;;5.85;3.22;;;18.20;99.90;;;;;;4928934;29;20091;-78
2022/05/21 01:20:06;;;;;;;6.53;3.78;;;18.30;99.90;;;;;;4912221;29;20036;-79
2022/05/21 01:22:43;;;;;;;4.35;3.22;;;18.20;99.90;;;;;;4924023;29;20107;-78
2022/05/21 01:25:11;;;;;;;7.77;5.10;;;18.20;99.90;;;;;;4934407;29;20107;-79
2022/05/21 01:27:38;;;;;;;6.25;3.92;;;18.20;99.90;;;;;;4938507;29;20365;-79
2022/05/21 01:30:07;;;;;;;6.95;4.20;;;18.10;99.90;;;;;;4933119;29;20044;-79
2022/05/21 01:32:33;;;;;;;7.63;3.92;;;18.20;99.90;;;;;;4925055;29;20106;-79
2022/05/21 01:34:59;;;;;;;5.45;3.70;;;18.10;99.90;;;;;;4919605;29;20035;-79
2022/05/21 01:37:26;;;;;;;6.32;3.92;;;18.10;99.90;;;;;;4913426;29;20032;-79
2022/05/21 01:39:51;;;;;;;5.15;3.72;;;18.10;99.90;;;;;;4936265;29;20036;-77
2022/05/21 01:42:17;;;;;;;6.22;4.40;;;18.10;99.90;;;;;;4929549;29;20510;-79
2022/05/21 01:44:46;;;;;;;4.13;3.72;;;18.10;99.90;;;;;;4932558;29;20554;-78
2022/05/21 01:47:14;;;;;;;6.38;4.35;;;18.10;99.90;;;;;;4928770;29;20039;-79
2022/05/21 01:49:41;;;;;;;5.30;3.90;;;18.10;99.90;;;;;;4928662;29;20073;-79
2022/05/21 01:52:10;;;;;;;6.10;4.00;;;18.10;99.90;;;;;;4928775;29;20047;-79
2022/05/21 01:54:36;;;;;;;5.90;4.05;;;18.10;99.90;;;;;;4928316;29;20043;-80
2022/05/21 01:57:13;;;;;;;;;;;;;;;;;;;;;
2022/05/21 01:59:39;;;;;;;4.65;3.90;;;18.10;99.90;;;;;;4923871;29;21339;-79
2022/05/21 02:02:06;;;;;;;4.63;4.10;;;18.10;99.90;;;;;;4929464;29;20040;-79
2022/05/21 02:04:32;;;;;;;6.20;4.15;;;18.10;99.90;;;;;;4908457;29;20063;-79
2022/05/21 02:06:58;;;;;;;5.70;3.80;;;18.10;99.90;;;;;;4926805;29;20054;-80
2022/05/21 02:09:24;;;;;;;5.07;3.55;;;18.10;99.90;;;;;;4932232;29;20052;-79
2022/05/21 02:11:50;;;;;;;4.57;3.67;;;18.10;99.90;;;;;;4923959;29;20066;-79
2022/05/21 02:14:16;;;;;;;8.90;4.28;;;18.10;99.90;;;;;;4927096;29;20044;-79
2022/05/21 02:16:45;;;;;;;4.57;4.07;;;18.00;99.90;;;;;;4932861;29;20031;-79
2022/05/21 02:19:11;;;;;;;4.85;4.30;;;17.90;99.90;;;;;;4926455;29;20036;-79
2022/05/21 02:21:40;;;;;;;6.15;4.10;;;17.80;99.90;;;;;;4926758;29;20042;-79
2022/05/21 02:24:08;;;;;;;4.55;4.10;;;17.70;99.90;;;;;;4933733;29;20032;-79
2022/05/21 02:26:38;;;;;;;6.28;4.22;;;17.60;99.90;;;;;;4927178;29;20543;-79
2022/05/21 02:29:08;;;;;;;4.72;3.78;;;17.50;99.90;;;;;;4912590;29;20042;-78
2022/05/21 02:31:34;;;;;;;3.42;2.75;;;17.30;99.90;;;;;;4929250;29;20043;-79
2022/05/21 02:34:00;;;;;;;3.83;3.15;;;17.10;99.90;;;;;;4933343;29;20044;-78
2022/05/21 02:39:31;;;;;;;5.75;3.38;;;16.80;99.90;;;;;;4925795;29;20942;-79
2022/05/21 02:42:00;;;;;;;3.40;2.70;;;16.80;99.90;;;;;;4926568;29;20152;-78
2022/05/21 02:44:26;;;;;;;7.03;3.40;;;16.70;99.90;;;;;;4931869;29;20554;-78
2022/05/21 02:46:52;;;;;;;4.75;3.15;;;16.70;99.90;;;;;;4932325;29;20111;-79
2022/05/21 02:49:18;;;;;;;5.43;2.97;;;16.70;99.90;;;;;;4921491;29;21539;-78
2022/05/21 02:51:47;;;;;;;4.20;2.90;;;16.70;99.90;;;;;;4927664;29;20055;-78
2022/05/21 02:54:16;;;;;;;4.43;3.00;;;16.60;99.90;;;;;;4929805;29;20063;-79
2022/05/21 02:56:48;;;;;;;5.80;2.90;;;16.50;99.90;;;;;;4917065;29;20032;-78
2022/05/21 02:59:15;;;;;;;3.17;2.85;;;16.60;99.90;;;;;;4915883;29;20047;-78
2022/05/21 03:01:40;;;;;;;3.60;2.72;;;16.50;99.90;;;;;;4928193;29;20043;-78
2022/05/21 03:04:15;;;;;;;4.68;2.88;;;16.50;99.90;;;;;;4931655;29;20035;-78
2022/05/21 03:06:41;;;;;;;4.18;3.28;;;16.60;99.90;;;;;;4932362;29;20406;-79
2022/05/21 03:11:51;;;;;;;4.75;3.03;;;16.60;99.90;;;;;;4918413;29;20082;-79
2022/05/21 03:14:17;;;;;;;3.42;2.70;;;16.60;99.90;;;;;;4915139;29;20048;-79
2022/05/21 03:16:46;;;;;;;3.53;2.90;;;16.60;99.90;;;;;;4918105;29;21315;-79
2022/05/21 03:19:15;;;;;;;2.88;2.58;;;16.50;99.90;;;;;;4933396;29;20099;-79
2022/05/21 03:21:41;;;;;;;3.95;2.80;;;16.60;99.90;;;;;;4935865;29;20031;-80
2022/05/21 03:24:08;;;;;;;5.38;3.35;;;16.50;99.90;;;;;;4941403;29;20051;-80
2022/05/21 03:26:35;;;;;;;3.10;2.80;;;16.50;99.90;;;;;;4919298;29;20081;-79
2022/05/21 03:29:01;;;;;;;5.20;2.95;;;16.50;99.90;;;;;;4932039;29;20080;-77
2022/05/21 03:31:27;;;;;;;3.25;2.90;;;16.50;99.90;;;;;;4931773;29;20051;-78
2022/05/21 03:33:52;;;;;;;5.88;2.97;;;16.50;99.90;;;;;;4933651;29;20039;-78
2022/05/21 03:36:18;;;;;;;3.08;2.80;;;16.40;99.90;;;;;;4934414;29;20046;-78
2022/05/21 03:38:44;;;;;;;8.30;2.75;;;16.40;99.90;;;;;;4932773;29;20043;-78
2022/05/21 03:41:10;;;;;;;4.75;2.80;;;16.40;99.90;;;;;;4932867;29;20036;-79
2022/05/21 03:43:51;;;;;;;3.08;2.75;;;16.30;99.90;;;;;;4930682;29;20122;-78
2022/05/21 03:46:18;;;;;;;3.47;3.03;;;16.20;99.90;;;;;;4912581;29;20475;-79
2022/05/21 03:48:45;;;;;;;2.88;2.65;;;16.30;99.90;;;;;;4931774;29;20031;-79
2022/05/21 03:51:10;;;;;;;4.85;2.75;;;16.30;99.90;;;;;;4931053;29;20123;-79
2022/05/21 03:53:37;;;;;;;4.95;2.90;;;16.30;99.90;;;;;;4928020;29;20086;-79
2022/05/21 03:56:04;;;;;;;3.25;2.95;;;16.30;99.90;;;;;;4927942;29;20027;-79
2022/05/21 03:58:30;;;;;;;4.15;3.60;;;16.30;99.90;;;;;;4926866;29;20046;-78
2022/05/21 04:00:56;;;;;;;2.95;2.72;;;16.30;99.90;;;;;;4926964;29;20070;-78
2022/05/21 04:03:34;;;;;;;3.67;2.90;;;16.30;99.90;;;;;;4932712;29;20419;-78
2022/05/21 04:06:00;;;;;;;4.72;2.80;;;16.30;99.90;;;;;;4920904;29;20077;-79
2022/05/21 04:08:27;;;;;;;2.83;2.53;;;16.30;99.90;;;;;;4931946;29;20039;-78
2022/05/21 04:10:53;;;;;;;3.33;2.63;;;16.40;99.90;;;;;;4925452;29;20067;-78
2022/05/21 04:13:19;;;;;;;4.38;2.70;;;16.40;99.90;;;;;;4929111;29;20036;-77
2022/05/21 04:15:46;;;;;;;4.60;2.63;;;16.40;99.90;;;;;;4930553;29;20080;-78
2022/05/21 04:18:13;;;;;;;3.15;2.80;;;16.40;99.90;;;;;;4932089;29;20038;-78
2022/05/21 04:20:39;;;;;;;2.83;2.63;;;16.50;99.90;;;;;;4924944;29;20046;-78
2022/05/21 04:23:05;;;;;;;4.07;2.72;;;16.50;99.90;;;;;;4921505;29;20031;-78
2022/05/21 04:25:31;;;;;;;3.08;2.67;;;16.40;99.90;;;;;;4908763;29;20130;-78
2022/05/21 04:27:58;;;;;;;3.83;2.25;;;16.20;99.90;;;;;;4930719;29;20035;-78
2022/05/21 04:30:35;;;;;;;3.10;2.80;;;16.20;99.90;;;;;;4926687;29;20042;-77
2022/05/21 04:33:02;;;;;;;3.25;2.70;;;16.40;99.90;;;;;;4932367;29;20044;-78
2022/05/21 04:38:15;;;;;;;3.05;2.58;;;16.50;99.90;;;;;;4932069;29;20067;-78
2022/05/21 04:40:51;;;;;;;4.53;2.50;;;16.40;99.90;;;;;;4914830;29;20039;-77
2022/05/21 04:43:17;;;;;;;3.00;2.40;;;16.40;99.90;;;;;;4930895;29;20035;-78
2022/05/21 04:45:43;;;;;;;2.55;2.35;;;16.50;99.90;;;;;;4913077;29;20142;-79
2022/05/21 04:48:14;;;;;;;2.67;2.40;;;16.60;99.90;;;;;;4930579;29;20042;-79
2022/05/21 04:50:40;;;;;;;3.88;2.50;;;16.50;99.90;;;;;;4927783;29;20031;-79
2022/05/21 04:53:06;;;;;;;4.82;2.60;;;16.60;99.90;;;;;;4911945;29;20116;-78
2022/05/21 04:55:32;;;;;;;2.42;2.22;;;16.60;99.90;;;;;;4927490;29;20035;-79
2022/05/21 04:57:58;;;;;;;2.53;2.28;;;16.60;99.90;;;;;;4927714;29;20032;-79
2022/05/21 05:00:24;;;;;;;2.42;2.20;;;16.80;99.90;;;;;;4910102;29;20047;-79
2022/05/21 05:02:52;;;;;;;2.47;1.92;;;16.80;99.90;;;;;;4927044;29;20134;-79
2022/05/21 05:05:18;;;;;;;2.95;2.38;;;16.80;99.90;;;;;;4927013;29;20261;-78
2022/05/21 05:07:44;;;;;;;2.53;2.13;;;16.90;99.90;;;;;;4929590;29;20043;-79
2022/05/21 05:10:10;;;;;;;3.83;2.15;;;16.50;99.90;;;;;;4927670;29;20067;-77
2022/05/21 05:12:36;;;;;;;2.75;2.25;;;16.40;99.90;;;;;;4928956;29;20057;-78
2022/05/21 05:15:03;;;;;;;2.72;2.05;;;16.30;99.90;;;;;;4929246;29;20103;-77
2022/05/21 05:17:30;;;;;;;2.72;2.40;;;16.20;99.90;;;;;;4918596;29;20032;-78
2022/05/21 05:19:57;;;;;;;3.50;2.00;;;16.20;99.90;;;;;;4905438;29;20036;-80
2022/05/21 05:22:23;;;;;;;3.70;2.10;;;16.00;99.90;;;;;;4923113;29;20043;-78
2022/05/21 05:24:49;;;;;;;3.60;2.67;;;16.00;99.90;;;;;;4925395;29;20039;-78
2022/05/21 05:27:15;;;;;;;2.53;2.33;;;15.90;99.90;;;;;;4928297;29;20128;-78
2022/05/21 05:29:41;;;;;;;3.20;2.83;;;16.00;99.90;;;;;;4927308;29;20030;-78
2022/05/21 05:32:08;;;;;;;4.38;2.50;;;16.00;99.90;;;;;;4925169;29;20055;-78
2022/05/21 05:34:34;;;;;;;3.10;2.28;;;16.10;99.90;;;;;;4927878;29;20042;-79
2022/05/21 05:37:01;;;;;;;2.15;1.95;;;16.00;99.90;;;;;;4925460;29;20040;-79
2022/05/21 05:39:29;;;;;;;2.28;1.90;;;16.00;99.90;;;;;;4926890;29;20079;-78
2022/05/21 05:41:57;;;;;;;3.05;2.75;;;15.90;99.90;;;;;;4908772;29;20060;-78
2022/05/21 05:44:23;;;;;;;4.22;3.08;;;16.00;99.90;;;;;;4925943;29;20433;-80
2022/05/21 05:46:49;;;;;;;2.97;2.72;;;16.20;99.90;;;;;;4933524;29;20040;-79
2022/05/21 05:49:15;;;;;;;3.08;2.88;;;15.80;99.90;;;;;;4926958;29;20087;-79
2022/05/21 05:51:41;;;;;;;3.83;3.08;;;15.80;99.90;;;;;;4934225;29;20046;-79
2022/05/21 05:54:07;;;;;;;3.95;2.95;;;16.00;99.90;;;;;;4914601;29;20020;-79
2022/05/21 05:56:53;;;;;;;3.45;2.88;;;16.00;99.90;;;;;;4933250;29;20046;-79
2022/05/21 06:04:55;;;;;;;3.40;3.05;;;16.30;99.90;;;;;;4931635;29;20050;-79
2022/05/21 06:07:23;;;;;;;3.38;3.08;;;16.50;99.90;;;;;;4927386;29;20043;-79
2022/05/21 06:10:11;;;;;;;4.97;2.80;;;16.50;99.90;;;;;;4933119;29;20028;-79
2022/05/21 06:12:37;;;;;;;;;;;16.50;99.90;;;;;;4892569;29;20055;-79
2022/05/21 06:15:04;;;;;;;3.45;3.10;;;16.40;99.90;;;;;;4896195;29;19915;-79
2022/05/21 06:17:32;;;;;;;3.15;2.72;;;16.50;99.90;;;;;;4893032;29;20480;-79
2022/05/21 06:19:58;;;;;;;7.40;2.53;;;16.50;99.90;;;;;;4893442;29;20088;-79
2022/05/21 06:22:27;;;;;;;7.20;2.70;;;16.60;99.90;;;;;;4890792;29;20033;-79
2022/05/21 06:24:53;;;;;;;3.03;2.50;;;16.80;99.90;;;;;;4897137;29;20035;-79
2022/05/21 06:27:19;;;;;;;2.85;2.47;;;16.70;99.90;;;;;;4896220;29;20072;-79
2022/05/21 06:29:47;;;;;;;4.28;2.72;;;16.80;99.90;;;;;;4896047;29;20465;-79
2022/05/21 06:32:12;;;;;;;2.85;2.50;;;16.90;99.90;;;;;;4894997;29;20048;-78
2022/05/21 06:34:39;;;;;;;2.97;2.55;;;16.80;99.90;;;;;;4897684;29;20055;-79
2022/05/21 06:37:09;;;;;;;4.13;2.30;;;16.90;99.90;;;;;;4899057;29;20017;-79
2022/05/21 06:39:37;;;;;;;3.72;2.40;;;16.90;99.90;;;;;;4907439;29;20104;-78
2022/05/21 06:42:08;;;;;;;2.80;2.28;;;17.00;99.90;;;;;;4892896;29;20032;-78
2022/05/21 06:44:34;;;;;;;2.15;1.80;;;17.20;99.90;;;;;;4899188;29;20040;-79
2022/05/21 06:47:06;;;;;;;2.33;2.13;;;17.10;99.90;;;;;;4897395;29;20040;-78
2022/05/21 06:49:35;;;;;;;2.38;2.17;;;17.10;99.90;;;;;;4886819;29;20184;-79
2022/05/21 06:52:00;;;;;;;2.25;2.08;;;17.40;99.90;;;;;;4895127;29;20063;-78
2022/05/21 06:54:27;;;;;;;2.55;2.35;;;17.50;99.90;;;;;;4898416;29;20460;-78
2022/05/21 06:56:53;;;;;;;2.95;2.30;;;17.30;99.90;;;;;;4884779;29;20555;-78
2022/05/21 06:59:19;;;;;;;4.50;2.58;;;16.70;99.90;;;;;;4892053;29;20571;-78
2022/05/21 07:01:45;;;;;;;3.53;2.55;;;16.60;99.90;;;;;;4895460;29;20085;-78
2022/05/21 07:04:13;;;;;;;4.10;2.30;;;16.30;99.90;;;;;;4892771;29;20064;-78
2022/05/21 07:09:24;;;;;;;2.58;1.92;;;16.50;99.90;;;;;;4891889;29;20176;-78
2022/05/21 07:11:51;;;;;;;2.95;2.30;;;16.50;99.90;;;;;;4907948;29;20139;-79
2022/05/21 07:14:17;;;;;;;2.50;2.30;;;16.40;99.90;;;;;;4913548;29;20043;-79
2022/05/21 07:16:44;;;;;;;3.08;2.38;;;16.50;99.90;;;;;;4915781;29;20047;-78
2022/05/21 07:19:10;;;;;;;2.47;2.28;;;16.70;99.90;;;;;;4911402;29;20032;-78
2022/05/21 07:21:36;;;;;;;2.63;2.10;;;17.10;99.90;;;;;;4908137;29;20039;-79
2022/05/21 07:24:03;;;;;;;2.47;2.28;;;17.20;99.90;;;;;;4913960;29;20751;-78
2022/05/21 07:26:28;;;;;;;2.33;2.10;;;16.90;99.90;;;;;;4907035;29;20728;-79
2022/05/21 07:28:56;;;;;;;3.80;2.35;;;16.90;99.90;;;;;;4909703;29;20043;-79
2022/05/21 07:31:22;;;;;;;3.17;1.90;;;16.80;98.50;;;;;;4914870;29;20059;-78
2022/05/21 07:33:48;;;;;;;2.67;1.73;;;17.20;99.90;;;;;;4914176;29;20040;-78
2022/05/21 07:36:14;;;;;;;1.95;1.73;;;17.40;99.90;;;;;;4911853;29;20380;-78
2022/05/21 07:38:40;;;;;;;2.45;1.67;;;17.40;99.30;;;;;;4913803;29;20033;-78
2022/05/21 07:41:06;;;;;;;2.50;1.70;;;17.00;95.60;;;;;;4916707;29;20036;-80
2022/05/21 07:43:33;;;;;;;2.83;2.00;;;17.10;96.20;;;;;;4909327;29;20040;-79
2022/05/21 07:46:03;;;;;;;1.92;1.73;;;17.20;96.50;;;;;;4914283;29;20023;-78
2022/05/21 07:48:30;;;;;;;1.95;1.70;;;17.20;98.40;;;;;;4909047;29;20067;-80
2022/05/21 07:50:59;;;;;;;1.27;1.20;;;17.50;98.70;;;;;;4915666;29;20043;-79
2022/05/21 07:53:39;;;;;;;1.20;1.10;;;17.80;94.70;;;;;;4914015;29;20040;-79
2022/05/21 07:56:10;;;;;;;1.83;1.73;;;17.40;90.50;;;;;;4908984;29;20762;-79
2022/05/21 07:58:39;;;;;;;1.77;1.65;;;17.50;96.10;;;;;;4916080;29;20043;-79
2022/05/21 08:01:04;;;;;;;;;;;17.60;94.10;;;;;;4913482;29;20103;-79
2022/05/21 08:03:30;;;;;;;1.65;1.55;;;18.00;97.20;;;;;;4909813;29;19923;-79
2022/05/21 08:05:56;;;;;;;2.55;1.40;;;18.20;93.10;;;;;;4914138;29;20558;-79
2022/05/21 08:08:25;;;;;;;2.80;1.80;;;18.40;92.20;;;;;;4915537;29;20052;-80
2022/05/21 08:10:53;;;;;;;1.75;1.48;;;18.50;93.00;;;;;;4917555;29;20051;-80
2022/05/21 08:13:28;;;;;;;1.60;1.50;;;18.50;84.10;;;;;;4924679;29;20444;-83
2022/05/21 08:16:13;;;;;;;;;;;;;;;;;;;;;
2022/05/21 08:18:49;;;;;;;3.78;1.50;;;17.70;94.90;;;;;;4929696;29;20039;-83
2022/05/21 08:21:15;;;;;;;1.40;1.17;;;17.90;95.40;;;;;;4931727;29;20043;-84
2022/05/21 08:29:12;;;;;;;1.00;0.90;;;17.40;90.30;;;;;;4934016;29;20048;-83
2022/05/21 08:31:38;;;;;;;1.48;0.93;;;17.50;75.90;;;;;;4902393;29;20046;-82
2022/05/21 08:34:04;;;;;;;1.20;1.10;;;17.70;77.40;;;;;;4933323;29;20158;-83
2022/05/21 08:36:37;;;;;;;2.20;1.30;;;17.60;81.10;;;;;;4933829;29;20038;-82
2022/05/21 08:39:03;;;;;;;1.20;1.10;;;17.70;90.10;;;;;;4927408;29;20043;-82
2022/05/21 08:41:32;;;;;;;1.60;1.30;;;17.60;87.50;;;;;;4928410;29;20067;-83
2022/05/21 08:44:16;;;;;;;1.30;1.20;;;17.70;88.40;;;;;;4925384;29;20040;-83
2022/05/21 08:46:59;;;;;;;2.25;1.05;;;17.90;91.70;;;;;;4927465;29;20035;-82
2022/05/21 08:49:44;;;;;;;1.30;1.20;;;18.40;87.30;;;;;;4927833;29;20043;-82
2022/05/21 08:52:49;;;;;;;1.25;1.15;;;18.40;89.80;;;;;;4929178;29;20059;-82
2022/05/21 08:55:23;;;;;;;2.08;1.30;;;18.40;88.60;;;;;;4924557;29;20075;-82
2022/05/21 08:57:57;;;;;;;1.10;1.10;;;18.40;85.50;;;;;;4936642;29;20091;-82
2022/05/21 09:00:27;;;;;;;3.28;1.25;;;18.40;81.80;;;;;;4915380;29;20479;-82
2022/05/21 09:02:54;;;;;;;1.33;1.23;;;18.30;84.80;;;;;;4932873;29;20043;-82
2022/05/21 09:05:22;;;;;;;1.20;1.20;;;18.60;89.60;;;;;;4917089;29;20043;-84
2022/05/21 09:07:58;;;;;;;;;;;18.70;93.30;;;;;;4914686;29;21005;-82
2022/05/21 09:10:43;;;;;;;1.17;1.17;;;18.60;77.40;;;;;;4927993;29;20405;-82
2022/05/21 09:13:44;;;;;;;1.40;1.30;;;18.40;85.50;;;;;;4911445;29;21724;-82
2022/05/21 09:19:03;;;;;;;1.92;1.30;;;18.60;94.30;;;;;;4932352;29;20065;-82
2022/05/21 09:21:39;;;;;;;1.20;1.20;;;18.60;82.80;;;;;;4920256;29;20080;-83
2022/05/21 09:24:08;;;;;;;1.30;1.20;;;18.70;85.30;;;;;;4926259;29;20039;-82
2022/05/21 09:26:51;;;;;;;0.82;0.82;;;18.70;82.90;;;;;;4914375;29;20094;-82
2022/05/21 09:29:28;;;;;;;3.47;1.50;;;18.80;71.60;;;;;;4930814;29;20040;-81
2022/05/21 09:31:58;;;;;;;0.93;0.93;;;19.00;67.00;;;;;;4933407;29;20040;-80
2022/05/21 09:34:35;;;;;;;1.23;1.10;;;19.10;75.30;;;;;;4923204;29;20039;-81
2022/05/21 09:37:04;;;;;;;1.80;1.00;;;18.80;84.30;;;;;;4916788;29;20067;-80
2022/05/21 09:39:38;;;;;;;0.90;0.90;;;18.70;72.60;;;;;;4933578;29;20043;-81
2022/05/21 09:45:26;;;;;;;1.10;1.10;;;18.70;85.20;;;;;;4937494;29;20042;-82
2022/05/21 09:48:03;;;;;;;1.15;1.05;;;18.60;67.80;;;;;;4930391;29;20063;-81
2022/05/21 09:50:41;;;;;;;3.03;1.00;;;18.90;79.50;;;;;;4932930;29;20593;-81
2022/05/21 09:53:29;;;;;;;1.38;1.20;;;19.10;79.60;;;;;;4924877;29;20043;-81
2022/05/21 09:56:00;;;;;;;1.02;1.02;;;19.30;74.10;;;;;;4932297;29;20060;-81
2022/05/21 09:58:26;;;;;;;2.50;1.45;;;19.40;77.80;;;;;;4926309;29;20043;-80
2022/05/21 10:00:55;;;;;;;1.52;1.13;;;19.90;90.20;;;;;;4923535;29;20639;-80
2022/05/21 10:03:45;;;;;;;1.88;1.23;;;19.90;74.30;;;;;;4915213;29;20046;-80
2022/05/21 10:12:39;;;;;;;1.25;1.10;;;19.70;74.40;;;;;;4932136;29;20155;-80
2022/05/21 10:15:26;;;;;;;2.53;0.80;;;19.40;63.80;;;;;;4898589;29;20040;-82
2022/05/21 10:18:04;;;;;;;0.85;0.85;;;19.10;60.30;;;;;;4910339;29;20083;-82
2022/05/21 10:20:37;;;;;;;;;;;19.30;68.20;;;;;;4932753;29;20040;-82
2022/05/21 10:23:31;;;;;;;3.20;1.17;;;19.30;58.70;;;;;;4912523;29;19954;-81
2022/05/21 10:26:01;;;;;;;1.65;1.00;;;19.50;65.90;;;;;;4928429;29;20059;-81
2022/05/21 10:28:29;;;;;;;0.90;0.90;;;19.30;60.50;;;;;;4930937;29;20517;-83
2022/05/21 10:31:14;;;;;;;2.45;0.90;;;19.30;62.60;;;;;;4926864;29;20134;-82
2022/05/21 10:34:12;;;;;;;0.73;0.73;;;19.60;59.90;;;;;;4925651;29;20042;-81
2022/05/21 10:36:40;;;;;;;;;;;19.50;57.40;;;;;;4899111;29;20044;-79
2022/05/21 10:39:18;;;;;;;1.20;0.90;;;19.40;66.20;;;;;;4926182;29;19919;-80
2022/05/21 10:41:53;;;;;;;0.90;0.90;;;19.40;66.80;;;;;;4928985;29;20028;-82
2022/05/21 10:44:29;;;;;;;0.60;0.60;;;19.50;58.50;;;;;;4931761;29;20087;-83
2022/05/21 10:47:08;;;;;;;2.47;0.70;;;19.60;59.40;;;;;;4930184;29;20607;-82
2022/05/21 10:49:46;;;;;;;1.02;0.93;;;19.40;59.60;;;;;;4927069;29;21312;-84
2022/05/21 10:52:19;;;;;;;0.80;0.80;;;19.50;60.30;;;;;;4925277;29;20379;-83
2022/05/21 10:55:18;;;;;;;0.90;0.90;;;19.80;59.90;;;;;;4931369;29;20110;-83
2022/05/21 10:58:07;;;;;;;1.67;0.75;;;19.50;57.30;;;;;;4927462;29;20186;-83
2022/05/21 11:01:12;;;;;;;3.53;1.20;;;19.50;57.20;;;;;;4912814;29;20064;-81
2022/05/21 11:04:04;;;;;;;0.70;0.70;;;19.40;66.90;;;;;;4907909;29;20042;-83
2022/05/21 11:06:35;;;;;;;1.42;0.93;;;19.50;58.00;;;;;;4930724;29;20051;-82
2022/05/21 11:09:49;;;;;;;3.00;1.10;;;19.50;65.30;;;;;;4926550;29;20036;-83
2022/05/21 11:12:56;;;;;;;0.60;0.60;;;19.80;65.80;;;;;;4875798;29;20052;-82
2022/05/21 11:15:40;;;;;;;3.17;1.40;;;20.00;53.40;;;;;;4887621;29;20079;-83
2022/05/21 11:18:26;;;;;;;0.85;0.80;;;20.10;73.60;;;;;;4907147;29;20040;-83
2022/05/21 11:21:30;;;;;;;0.60;0.57;;;20.20;63.10;;;;;;4906109;29;20040;-82
2022/05/21 11:24:17;;;;;;;1.50;1.10;;;19.80;56.10;;;;;;4914512;29;20091;-82
2022/05/21 11:27:24;;;;;;;0.70;0.70;;;20.00;65.50;;;;;;4913761;29;20051;-83
2022/05/21 11:30:05;;;;;;;0.80;0.80;;;20.20;73.80;;;;;;4884999;29;20036;-82
2022/05/21 11:38:32;;;;;;;1.95;0.73;;;20.00;64.00;;;;;;4897445;29;20515;-83
2022/05/21 11:41:27;;;;;;;2.85;0.80;;;20.00;63.40;;;;;;4906473;29;20163;-82
2022/05/21 11:47:12;;;;;;;0.60;0.60;;;20.10;56.40;;;;;;4906066;29;20082;-83
2022/05/21 11:50:00;;;;;;;0.60;0.60;;;20.40;62.80;;;;;;4905920;29;20036;-83
2022/05/21 11:52:31;;;;;;;1.67;0.80;;;20.40;62.00;;;;;;4904515;29;20492;-83
2022/05/21 11:54:56;;;;;;;4.18;0.98;;;20.50;67.00;;;;;;4906253;29;20040;-83
2022/05/21 11:57:35;;;;;;;0.70;0.70;;;20.60;58.40;;;;;;4905725;29;20040;-83
2022/05/21 12:00:25;;;;;;;0.70;0.70;;;20.50;56.20;;;;;;4904499;29;20542;-83
2022/05/21 12:02:53;;;;;;;0.70;0.70;;;20.50;58.70;;;;;;4904892;29;20052;-81
2022/05/21 12:05:46;;;;;;;3.45;0.73;;;20.70;59.70;;;;;;4912290;29;20769;-82
2022/05/21 12:08:36;;;;;;;2.60;0.95;;;20.60;57.20;;;;;;4917116;29;20261;-82
2022/05/21 12:14:56;;;;;;;3.70;1.02;;;20.70;55.90;;;;;;4831968;29;20134;-82
2022/05/21 12:17:56;;;;;;;0.80;0.80;;;20.50;53.80;;;;;;4831786;29;20045;-83
2022/05/21 12:20:41;;;;;;;0.55;0.45;;;20.50;59.70;;;;;;4901466;29;20112;-83
2022/05/21 12:23:40;;;;;;;2.60;1.00;;;20.70;52.60;;;;;;4909414;29;20036;-84
2022/05/21 12:26:30;;;;;;;0.68;0.68;;;20.90;56.80;;;;;;4911754;29;20370;-82
2022/05/21 12:29:06;;;;;;;0.60;0.60;;;21.10;68.60;;;;;;4913640;29;20561;-84
2022/05/21 12:32:37;;;;;;;0.88;0.88;;;21.30;54.40;;;;;;4907106;29;20036;-83
2022/05/21 12:35:17;;;;;;;0.70;0.70;;;20.90;54.40;;;;;;4900815;29;20058;-83
2022/05/21 12:37:44;;;;;;;1.58;0.70;;;20.70;50.60;;;;;;4899343;29;20055;-83
2022/05/21 12:40:13;;;;;;;1.88;0.93;;;20.60;52.00;;;;;;4909515;29;20041;-82
2022/05/21 12:42:47;;;;;;;1.08;0.82;;;20.80;69.00;;;;;;4906996;29;20542;-83
2022/05/21 12:45:28;;;;;;;2.05;0.90;;;21.00;65.00;;;;;;4909881;29;20036;-83
2022/05/21 12:48:13;;;;;;;0.73;0.73;;;21.20;55.60;;;;;;4908484;29;20024;-83
2022/05/21 12:51:08;;;;;;;0.65;0.50;;;21.50;59.20;;;;;;4913936;29;20036;-83
2022/05/21 12:53:49;;;;;;;6.35;0.90;;;21.50;53.40;;;;;;4911030;29;20123;-83
2022/05/21 12:56:27;;;;;;;0.73;0.63;;;21.50;52.50;;;;;;4896624;29;20150;-82
2022/05/21 12:59:02;;;;;;;;;;;21.40;53.40;;;;;;4912032;29;20040;-83
2022/05/21 13:01:30;;;;;;;0.47;0.47;;;21.50;62.30;;;;;;4908893;29;20516;-82
2022/05/21 13:03:57;;;;;;;0.80;0.52;;;21.50;52.60;;;;;;4909603;29;20652;-82
2022/05/21 13:06:29;;;;;;;0.57;0.57;;;21.20;50.50;;;;;;4909149;29;20083;-82
2022/05/21 13:08:55;;;;;;;2.10;0.93;;;20.90;49.30;;;;;;4908291;29;20044;-83
2022/05/21 13:11:24;;;;;;;1.95;0.50;;;20.90;51.60;;;;;;4918015;29;20510;-83
2022/05/21 13:14:01;;;;;;;0.73;0.70;;;21.00;50.50;;;;;;4927359;29;20069;-82
2022/05/21 13:16:28;;;;;;;1.25;0.50;;;21.20;66.00;;;;;;4930032;29;20028;-83
2022/05/21 13:19:32;;;;;;;0.50;0.50;;;21.40;53.80;;;;;;4930638;29;20036;-82
2022/05/21 13:22:28;;;;;;;0.65;0.65;;;21.10;51.70;;;;;;4927875;29;20113;-83
2022/05/21 13:25:09;;;;;;;1.70;0.80;;;21.20;57.50;;;;;;4931676;29;20043;-83
2022/05/21 13:27:47;;;;;;;2.65;0.60;;;21.50;61.00;;;;;;4931808;29;20047;-82
2022/05/21 13:30:32;;;;;;;2.10;0.82;;;21.40;51.90;;;;;;4931360;29;20450;-82
2022/05/21 13:33:01;;;;;;;0.60;0.60;;;21.30;49.90;;;;;;4932784;29;20491;-82
2022/05/21 13:35:39;;;;;;;0.93;0.60;;;21.20;50.10;;;;;;4933049;29;20039;-81
2022/05/21 13:38:09;;;;;;;1.20;0.70;;;21.30;54.70;;;;;;4932648;29;20110;-84
2022/05/21 13:40:48;;;;;;;1.25;0.55;;;21.40;58.00;;;;;;4913272;29;20032;-83
2022/05/21 13:43:14;;;;;;;0.50;0.50;;;21.70;50.30;;;;;;4934646;29;20079;-81
2022/05/21 13:45:57;;;;;;;1.15;0.70;;;21.70;54.70;;;;;;4930897;29;20059;-83
2022/05/21 13:48:33;;;;;;;0.40;0.40;;;21.60;48.60;;;;;;4915528;29;20046;-83
2022/05/21 13:50:59;;;;;;;0.70;0.70;;;21.60;51.70;;;;;;4934385;29;20043;-83
2022/05/21 13:53:27;;;;;;;0.60;0.57;;;21.60;50.70;;;;;;4935208;29;20067;-84
2022/05/21 13:56:00;;;;;;;1.02;0.75;;;21.70;49.20;;;;;;4933171;29;20032;-83
2022/05/21 13:58:34;;;;;;;1.80;0.73;;;21.70;53.50;;;;;;4931493;29;20600;-82
2022/05/21 14:01:04;;;;;;;2.67;0.60;;;22.00;52.10;;;;;;4928864;29;20050;-83
2022/05/21 14:03:43;;;;;;;0.60;0.60;;;22.00;54.60;;;;;;4934932;29;20114;-82
2022/05/21 14:06:21;;;;;;;0.60;0.60;;;21.90;49.20;;;;;;4915254;29;20091;-82
2022/05/21 14:09:01;;;;;;;2.88;0.73;;;22.00;51.10;;;;;;4932164;29;20038;-83